• Join FlightAware (Why Join?)
  • Login
  • US Flag 
09:05PM EST


 

Airport Tracker/Info


-or-


 

Live Flight TrackerFlight Track Log ✈ AMF1026 ✈ 14-May-2013 ✈ KALB - KCVG

Flight Track Log - Related Links

Times and Time Zones

All times are in EDT time to prevent confusion due to time zone crossing. See the AMF1026 flight status page for this flight to view local times or setup timezone preferences in your user account.

Time Position Orientation Groundspeed Altitude Reporting Facility
EDT Latitude Longitude Course Direction KTS MPH feet Rate Location/Type
08:37PM 42.7714 -73.8061 347° North 165 190 1,200  Level Boston Center
08:38PM 42.8089 -73.8183 347° North 191 220 2,300 1,440 Climbing Boston Center
08:39PM 42.8519 -73.8675 320° Northwest 211 243 3,900 1,320 Climbing Boston Center
08:40PM 42.8408 -73.9181 253° West 226 260 4,600 1,320 Climbing Boston Center
08:41PM 42.8108 -73.9911 241° Southwest 226 260 6,200 1,620 Climbing Boston Center
08:42PM 42.7889 -74.0697 249° West 221 254 7,900 1,740 Climbing Boston Center
08:43PM 42.7586 -74.1453 241° Southwest 215 247 9,700 1,560 Climbing Boston Center
08:44PM 42.7492 -74.2128 259° West 210 242 11,100 1,320 Climbing Boston Center
08:45PM 42.7500 -74.2919 271° West 194 223 12,700 1,500 Climbing Boston Center
08:46PM 42.7278 -74.3706 249° West 194 223 14,500 1,380 Climbing Boston Center
08:47PM 42.6978 -74.4261 234° Southwest 201 231 15,500 780 Climbing Boston Center
08:48PM 42.6611 -74.4983 235° Southwest 214 246 16,100 240 Climbing Boston Center
08:49PM 42.6431 -74.5711 251° West 227 261 16,000 -60 Descending Boston Center
08:50PM 42.6286 -74.6667 258° West 241 277 16,000  Level Boston Center
08:51PM 42.6144 -74.7508 257° West 241 277 16,000  Level Boston Center
08:52PM 42.6003 -74.8406 258° West 251 289 16,000  Level Boston Center
08:53PM 42.5753 -74.9269 249° West 251 289 16,000  Level Boston Center
08:54PM 42.5403 -75.0072 239° Southwest 246 283 16,000  Level Boston Center
08:55PM 42.5069 -75.0903 241° Southwest 252 290 16,000  Level Boston Center
08:57PM 42.4567 -75.2617 248° West 233 268 16,000  Level New York Center
08:58PM 42.4369 -75.3447 252° West 233 268 16,100  Climbing New York Center
08:59PM 42.4128 -75.4300 249° West 238 274 16,000 -60 Descending New York Center
09:00PM 42.3844 -75.5122 245° Southwest 243 280 16,000  Level New York Center
09:01PM 42.3564 -75.5914 244° Southwest 248 285 16,000  Level New York Center
09:02PM 42.3261 -75.6706 243° Southwest 248 285 16,000  Level New York Center
09:03PM 42.2956 -75.7525 243° Southwest 248 285 16,000  Level New York Center
09:04PM 42.2672 -75.8342 245° Southwest 248 285 16,000  Level New York Center
09:05PM 42.2369 -75.9103 242° Southwest 248 285 16,000  Level New York Center
09:06PM 42.2042 -75.9889 241° Southwest 248 285 16,000  Level New York Center
09:07PM 42.1756 -76.0706 245° Southwest 242 278 16,000  Level New York Center
09:08PM 42.1472 -76.1494 244° Southwest 242 278 16,000  Level New York Center
09:09PM 42.1225 -76.2342 249° West 242 278 16,000  Level New York Center
09:10PM 42.0981 -76.3131 247° West 242 278 16,000  Level New York Center
09:11PM 42.0714 -76.3947 246° West 242 278 16,000  Level New York Center
09:12PM 42.0467 -76.4764 248° West 242 278 16,000  Level New York Center
09:13PM 42.0242 -76.5556 249° West 237 273 16,000  Level New York Center
09:14PM 41.9950 -76.6367 244° Southwest 237 273 16,000  Level New York Center
09:15PM 41.9703 -76.7181 248° West 237 273 16,000  Level New York Center
09:16PM 41.9433 -76.7967 245° Southwest 237 273 16,000  Level New York Center
09:18PM 41.8961 -76.9481 247° West 234 269 16,000  Level Cleveland Center
09:19PM 41.8694 -77.0278 246° West 234 269 16,000  Level Cleveland Center
09:20PM 41.8408 -77.1072 244° Southwest 234 269 16,000  Level Cleveland Center
09:21PM 41.8117 -77.1842 243° Southwest 239 275 16,000  Level Cleveland Center
09:22PM 41.7847 -77.2608 245° Southwest 239 275 16,000  Level Cleveland Center
09:23PM 41.7558 -77.3375 243° Southwest 239 275 16,000  Level Cleveland Center
09:24PM 41.7286 -77.4111 244° Southwest 234 269 16,000  Level Cleveland Center
09:25PM 41.6994 -77.4878 243° Southwest 234 269 16,000  Level Cleveland Center
09:26PM 41.6639 -77.5644 238° Southwest 239 275 16,000  Level Cleveland Center
09:27PM 41.6344 -77.6353 241° Southwest 234 269 16,000  Level Cleveland Center
09:28PM 41.6031 -77.7061 239° Southwest 234 269 16,000  Level Cleveland Center
09:29PM 41.5797 -77.7767 246° West 234 269 16,000  Level Cleveland Center
09:30PM 41.5522 -77.8500 243° Southwest 229 264 16,000  Level Cleveland Center
09:31PM 41.5269 -77.9258 246° West 224 258 16,000  Level Cleveland Center
09:32PM 41.4994 -78.0019 244° Southwest 224 258 16,000  Level Cleveland Center
09:33PM 41.4697 -78.0753 242° Southwest 224 258 16,000  Level Cleveland Center
09:34PM 41.4381 -78.1483 240° Southwest 224 258 16,000  Level Cleveland Center
09:35PM 41.4083 -78.2214 242° Southwest 224 258 16,000  Level Cleveland Center
09:36PM 41.3764 -78.2975 241° Southwest 230 265 16,000  Level Cleveland Center
09:37PM 41.3467 -78.3786 244° Southwest 230 265 16,000  Level Cleveland Center
09:38PM 41.3169 -78.4517 242° Southwest 230 265 16,000 300 Level Cleveland Center
09:39PM 41.2911 -78.5242 245° Southwest 230 265 16,600 720 Climbing Cleveland Center
09:40PM 41.2672 -78.5886 244° Southwest 219 252 17,500 600 Climbing Cleveland Center
09:41PM 41.2453 -78.6500 245° Southwest 200 230 17,900 240 Climbing Cleveland Center
09:42PM 41.2214 -78.7142 244° Southwest 194 223 18,000  Climbing Cleveland Center
09:43PM 41.1953 -78.7811 243° Southwest 200 230 18,000  Level Cleveland Center
09:44PM 41.1717 -78.8592 248° West 213 245 18,000  Level Cleveland Center
09:45PM 41.1519 -78.9369 251° West 219 252 18,000  Level Cleveland Center
09:46PM 41.1322 -79.0144 251° West 224 258 18,000  Level Cleveland Center
09:47PM 41.1144 -79.0947 254° West 229 264 18,000  Level Cleveland Center
09:48PM 41.0944 -79.1725 251° West 229 264 18,000  Level Cleveland Center
09:49PM 41.0747 -79.2500 251° West 229 264 18,000  Level Cleveland Center
09:50PM 41.0547 -79.3247 250° West 229 264 18,000  Level Cleveland Center
09:51PM 41.0386 -79.3939 253° West 229 264 18,000  Level Cleveland Center
09:52PM 41.0228 -79.4739 255° West 229 264 18,000  Level Cleveland Center
09:53PM 41.0108 -79.5431 257° West 224 258 18,000  Level Cleveland Center
09:54PM 40.9969 -79.6203 257° West 224 258 18,000  Level Cleveland Center
09:55PM 40.9831 -79.6975 257° West 224 258 18,000  Level Cleveland Center
09:56PM 40.9647 -79.7719 252° West 224 258 18,000  Level Cleveland Center
09:57PM 40.9444 -79.8464 250° West 224 258 18,000  Level Cleveland Center
09:58PM 40.9242 -79.9208 250° West 224 258 18,000  Level Cleveland Center
09:59PM 40.9017 -79.9925 247° West 224 258 18,000  Level Cleveland Center
10:00PM 40.8706 -80.0642 240° Southwest 224 258 18,000  Level Cleveland Center
10:01PM 40.8439 -80.1358 244° Southwest 224 258 18,000  Level Cleveland Center
10:02PM 40.8192 -80.2128 247° West 224 258 18,000  Level Cleveland Center
10:03PM 40.7839 -80.2842 237° Southwest 224 258 18,000  Level Cleveland Center
10:04PM 40.7506 -80.3556 238° Southwest 230 265 18,000  Level Cleveland Center
10:05PM 40.7133 -80.4214 233° Southwest 239 275 18,000  Level Cleveland Center
10:06PM 40.6717 -80.4900 231° Southwest 240 276 18,000  Level Cleveland Center
10:07PM 40.6342 -80.5586 234° Southwest 240 276 18,000  Level Cleveland Center
10:08PM 40.6028 -80.6378 242° Southwest 234 269 18,000  Level Cleveland Center
10:09PM 40.5861 -80.6953 249° West 219 252 18,000  Level Cleveland Center
10:10PM 40.5714 -80.7661 255° West 214 246 18,000  Level Cleveland Center
10:11PM 40.5422 -80.8372 242° Southwest 209 241 18,000  Level Cleveland Center
10:12PM 40.5003 -80.9053 231° Southwest 227 261 18,000  Level Cleveland Center
10:13PM 40.4583 -80.9706 230° Southwest 238 274 18,000  Level Cleveland Center
10:14PM 40.4206 -81.0386 234° Southwest 238 274 18,000 -360 Level Cleveland Center
10:15PM 40.3808 -81.1119 235° Southwest 244 281 17,300 -660 Descending Cleveland Center
10:16PM 40.3386 -81.1850 233° Southwest 249 287 16,700 -600 Descending Cleveland Center
10:17PM 40.2986 -81.2636 236° Southwest 256 295 16,100 -180 Descending Cleveland Center
10:20PM 40.1989 -81.4533 236° Southwest 242 278 16,100  Level Indianapolis Center
10:21PM 40.1592 -81.5256 234° Southwest 243 280 16,100  Level Indianapolis Center
10:22PM 40.1258 -81.6008 240° Southwest 237 273 16,100  Level Indianapolis Center
10:23PM 40.0956 -81.6764 242° Southwest 233 268 16,100  Level Indianapolis Center
10:24PM 40.0644 -81.7536 242° Southwest 238 274 16,100  Level Indianapolis Center
10:25PM 40.0317 -81.8319 241° Southwest 231 266 16,100  Level Indianapolis Center
10:26PM 40.0019 -81.9092 243° Southwest 236 272 16,100  Level Indianapolis Center
10:27PM 39.9731 -81.9869 244° Southwest 235 270 16,100  Level Indianapolis Center
10:28PM 39.9425 -82.0622 242° Southwest 232 267 16,100 -60 Level Indianapolis Center
10:29PM 39.9128 -82.1406 244° Southwest 237 273 16,000 -60 Descending Indianapolis Center
10:30PM 39.8833 -82.2172 243° Southwest 235 270 16,000  Level Indianapolis Center
10:31PM 39.8539 -82.2944 244° Southwest 238 274 16,000  Level Indianapolis Center
10:32PM 39.8250 -82.3717 244° Southwest 235 270 16,000  Level Indianapolis Center
10:33PM 39.7956 -82.4478 243° Southwest 234 269 16,000  Level Indianapolis Center
10:34PM 39.7675 -82.5261 245° Southwest 236 272 16,000  Level Indianapolis Center
10:35PM 39.7389 -82.6033 244° Southwest 236 272 16,000  Level Indianapolis Center
10:36PM 39.7064 -82.6939 245° Southwest 235 270 16,000  Level Indianapolis Center
10:37PM 39.6800 -82.7722 246° West 234 269 16,000  Level Indianapolis Center
10:38PM 39.6539 -82.8533 247° West 240 276 16,000  Level Indianapolis Center
10:39PM 39.6261 -82.9325 246° West 239 275 16,000  Level Indianapolis Center
10:40PM 39.6008 -83.0142 248° West 240 276 16,000  Level Indianapolis Center
10:41PM 39.5733 -83.0944 246° West 240 276 16,000  Level Indianapolis Center
10:42PM 39.5453 -83.1742 245° Southwest 241 277 16,000  Level Indianapolis Center
10:43PM 39.5183 -83.2553 247° West 242 278 16,000  Level Indianapolis Center
10:44PM 39.4908 -83.3353 246° West 240 276 16,000  Level Indianapolis Center
10:45PM 39.4658 -83.4169 248° West 240 276 16,000  Level Indianapolis Center
10:46PM 39.4397 -83.4978 247° West 242 278 16,000 -240 Level Indianapolis Center
10:47PM 39.4125 -83.5783 246° West 241 277 15,600 -840 Descending Indianapolis Center
10:48PM 39.3836 -83.6658 247° West 259 298 14,300 -1,320 Descending Indianapolis Center
10:49PM 39.3564 -83.7536 248° West 261 300 13,000 -1,380 Descending Indianapolis Center
10:50PM 39.3319 -83.8428 251° West 261 300 11,500 -1,020 Descending Indianapolis Center
10:51PM 39.3083 -83.9314 251° West 260 299 11,000 -240 Descending Indianapolis Center
10:52PM 39.2886 -84.0111 252° West 236 272 11,100 60 Climbing Indianapolis Center
10:53PM 39.2617 -84.0894 246° West 236 272 11,200 -480 Climbing Indianapolis Center
10:54PM 39.2458 -84.1697 256° West 230 265 10,200 -1,260 Descending Indianapolis Center
10:55PM 39.2392 -84.2486 264° West 221 254 8,700 -1,440 Descending Indianapolis Center
10:56PM 39.2419 -84.3250 273° West 212 244 7,300 -1,380 Descending Indianapolis Center
10:57PM 39.2450 -84.3986 273° West 207 238 5,900 -1,080 Descending Indianapolis Center
10:58PM 39.2483 -84.4686 274° West 198 228 5,100 -780 Descending Indianapolis Center
10:59PM 39.2219 -84.5225 238° Southwest 184 212 4,400 -840 Descending Indianapolis Center
11:00PM 39.1972 -84.5808 241° Southwest 182 209 3,400 -780 Descending Indianapolis Center
11:02PM 39.1500 -84.6500 229° Southwest 140 161 2,500 -660 Descending Cincinnati TRACON
11:03PM 39.1167 -84.6667 201° Southwest 117 135 1,900 -600 Descending Cincinnati TRACON
11:04PM 39.0833 -84.6667 180° South 108 124 1,400 -540 Descending Cincinnati TRACON
11:06PM 39.0488 -84.6678 210° Southwest  Level Estimated